Washington, District of Columbia
Current Conditions -  °F | °C
As of 7:52 PM on Wednesday 22 Oct 2014 (Local Time) from KDCA Reporting Station
Overcast Overcast  
Wind Chill: 58°   Ceiling: 4000
Heat Index: 58°   Visibility: 10mi
Dew Point: 48°   Wind: 10mph
Humidity: 70%   Direction: 330°NNW
Pressure: 29.94"   Gusts: NA
Location:  38.89°N, 77.03°W
Report Text: KDCA 222352Z 33009KT 10SM FEW034 BKN040 OVC060 14/09 A2994 RMK AO2 SLP139 60001 T01440089 10144 20133 53002
Loading
Personal Weather Stations






























Interactive Weather Map New forecast layout! Learn more

10-Day Weather Forecast

Advertisements
Track Severe Weather on mobile